sensor_id;sensor_type;location;lat;lon;timestamp;temperature;humidity
52459;DHT22;38372;52.902;6.024;2022-08-03T00:01:07;18.40;99.90
52459;DHT22;38372;52.902;6.024;2022-08-03T00:03:33;18.40;99.90
52459;DHT22;38372;52.902;6.024;2022-08-03T00:05:59;18.30;99.90
52459;DHT22;38372;52.902;6.024;2022-08-03T00:08:25;18.20;99.90
52459;DHT22;38372;52.902;6.024;2022-08-03T00:10:51;18.20;99.90
52459;DHT22;38372;52.902;6.024;2022-08-03T00:13:17;18.20;99.90
52459;DHT22;38372;52.902;6.024;2022-08-03T00:15:44;18.20;99.90
52459;DHT22;38372;52.902;6.024;2022-08-03T00:18:10;18.20;99.90
52459;DHT22;38372;52.902;6.024;2022-08-03T00:20:37;18.20;99.90
52459;DHT22;38372;52.902;6.024;2022-08-03T00:23:04;18.20;99.90
52459;DHT22;38372;52.902;6.024;2022-08-03T00:25:30;18.20;99.90
52459;DHT22;38372;52.902;6.024;2022-08-03T00:27:56;18.20;99.90
52459;DHT22;38372;52.902;6.024;2022-08-03T00:30:22;18.20;99.90
52459;DHT22;38372;52.902;6.024;2022-08-03T00:32:48;18.20;99.90
52459;DHT22;38372;52.902;6.024;2022-08-03T00:35:14;18.20;99.90
52459;DHT22;38372;52.902;6.024;2022-08-03T00:37:40;18.20;99.90
52459;DHT22;38372;52.902;6.024;2022-08-03T00:40:06;18.20;99.90
52459;DHT22;38372;52.902;6.024;2022-08-03T00:42:32;18.20;99.90
52459;DHT22;38372;52.902;6.024;2022-08-03T00:44:58;18.20;99.90
52459;DHT22;38372;52.902;6.024;2022-08-03T00:47:24;18.10;99.90
52459;DHT22;38372;52.902;6.024;2022-08-03T00:49:50;18.10;99.90
52459;DHT22;38372;52.902;6.024;2022-08-03T00:52:16;18.10;99.90
52459;DHT22;38372;52.902;6.024;2022-08-03T00:54:41;18.10;99.90
52459;DHT22;38372;52.902;6.024;2022-08-03T00:57:07;18.10;99.90
52459;DHT22;38372;52.902;6.024;2022-08-03T00:59:33;18.10;99.90
52459;DHT22;38372;52.902;6.024;2022-08-03T01:01:59;18.10;99.90
52459;DHT22;38372;52.902;6.024;2022-08-03T01:04:25;18.10;99.90
52459;DHT22;38372;52.902;6.024;2022-08-03T01:13:02;18.00;99.90
52459;DHT22;38372;52.902;6.024;2022-08-03T01:15:42;18.00;99.90
52459;DHT22;38372;52.902;6.024;2022-08-03T01:18:17;18.00;99.90
52459;DHT22;38372;52.902;6.024;2022-08-03T01:20:49;18.00;99.90
52459;DHT22;38372;52.902;6.024;2022-08-03T01:23:26;18.00;99.90
52459;DHT22;38372;52.902;6.024;2022-08-03T01:31:21;18.00;99.90
52459;DHT22;38372;52.902;6.024;2022-08-03T01:33:54;18.00;99.90
52459;DHT22;38372;52.902;6.024;2022-08-03T01:36:25;18.00;99.90
52459;DHT22;38372;52.902;6.024;2022-08-03T01:38:55;18.00;99.90
52459;DHT22;38372;52.902;6.024;2022-08-03T01:41:31;18.00;99.90
52459;DHT22;38372;52.902;6.024;2022-08-03T01:44:00;18.00;99.90
52459;DHT22;38372;52.902;6.024;2022-08-03T01:46:28;17.90;99.90
52459;DHT22;38372;52.902;6.024;2022-08-03T01:48:54;18.00;99.90
52459;DHT22;38372;52.902;6.024;2022-08-03T01:51:21;17.90;99.90
52459;DHT22;38372;52.902;6.024;2022-08-03T01:53:48;17.90;99.90
52459;DHT22;38372;52.902;6.024;2022-08-03T01:56:17;17.80;99.90
52459;DHT22;38372;52.902;6.024;2022-08-03T01:58:45;17.80;99.90
52459;DHT22;38372;52.902;6.024;2022-08-03T02:01:14;17.80;99.90
52459;DHT22;38372;52.902;6.024;2022-08-03T02:03:42;17.80;99.90
52459;DHT22;38372;52.902;6.024;2022-08-03T02:06:11;17.80;99.90
52459;DHT22;38372;52.902;6.024;2022-08-03T02:08:39;17.80;99.90
52459;DHT22;38372;52.902;6.024;2022-08-03T02:11:06;17.80;99.90
52459;DHT22;38372;52.902;6.024;2022-08-03T02:13:34;17.80;99.90
52459;DHT22;38372;52.902;6.024;2022-08-03T02:16:03;17.80;99.90
52459;DHT22;38372;52.902;6.024;2022-08-03T02:18:31;17.80;99.90
52459;DHT22;38372;52.902;6.024;2022-08-03T02:21:00;17.80;99.90
52459;DHT22;38372;52.902;6.024;2022-08-03T02:23:27;17.80;99.90
52459;DHT22;38372;52.902;6.024;2022-08-03T02:25:57;17.80;99.90
52459;DHT22;38372;52.902;6.024;2022-08-03T02:28:25;17.80;99.90
52459;DHT22;38372;52.902;6.024;2022-08-03T02:30:54;17.80;99.90
52459;DHT22;38372;52.902;6.024;2022-08-03T02:33:27;17.80;99.90
52459;DHT22;38372;52.902;6.024;2022-08-03T02:35:56;17.80;99.90
52459;DHT22;38372;52.902;6.024;2022-08-03T02:38:27;17.80;99.90
52459;DHT22;38372;52.902;6.024;2022-08-03T02:40:56;17.70;99.90
52459;DHT22;38372;52.902;6.024;2022-08-03T02:43:24;17.70;99.90
52459;DHT22;38372;52.902;6.024;2022-08-03T02:45:52;17.70;99.90
52459;DHT22;38372;52.902;6.024;2022-08-03T02:48:28;17.70;99.90
52459;DHT22;38372;52.902;6.024;2022-08-03T02:50:57;17.70;99.90
52459;DHT22;38372;52.902;6.024;2022-08-03T02:53:25;17.70;99.90
52459;DHT22;38372;52.902;6.024;2022-08-03T02:55:52;17.70;99.90
52459;DHT22;38372;52.902;6.024;2022-08-03T02:58:20;17.70;99.90
52459;DHT22;38372;52.902;6.024;2022-08-03T03:00:48;17.70;99.90
52459;DHT22;38372;52.902;6.024;2022-08-03T03:03:16;17.70;99.90
52459;DHT22;38372;52.902;6.024;2022-08-03T03:05:43;17.60;99.90
52459;DHT22;38372;52.902;6.024;2022-08-03T03:08:12;17.60;99.90
52459;DHT22;38372;52.902;6.024;2022-08-03T03:10:40;17.60;99.90
52459;DHT22;38372;52.902;6.024;2022-08-03T03:13:07;17.60;99.90
52459;DHT22;38372;52.902;6.024;2022-08-03T03:15:34;17.60;99.90
52459;DHT22;38372;52.902;6.024;2022-08-03T03:18:02;17.60;99.90
52459;DHT22;38372;52.902;6.024;2022-08-03T03:20:29;17.60;99.90
52459;DHT22;38372;52.902;6.024;2022-08-03T03:23:00;17.60;99.90
52459;DHT22;38372;52.902;6.024;2022-08-03T03:25:31;17.60;99.90
52459;DHT22;38372;52.902;6.024;2022-08-03T03:27:59;17.60;99.90
52459;DHT22;38372;52.902;6.024;2022-08-03T03:30:25;17.60;99.90
52459;DHT22;38372;52.902;6.024;2022-08-03T03:32:52;17.60;99.90
52459;DHT22;38372;52.902;6.024;2022-08-03T03:35:17;17.50;99.90
52459;DHT22;38372;52.902;6.024;2022-08-03T03:37:43;17.50;99.90
52459;DHT22;38372;52.902;6.024;2022-08-03T03:40:10;17.50;99.90
52459;DHT22;38372;52.902;6.024;2022-08-03T03:42:36;17.50;99.90
52459;DHT22;38372;52.902;6.024;2022-08-03T03:45:05;17.50;99.90
52459;DHT22;38372;52.902;6.024;2022-08-03T03:47:35;17.40;99.90
52459;DHT22;38372;52.902;6.024;2022-08-03T03:50:04;17.40;99.90
52459;DHT22;38372;52.902;6.024;2022-08-03T03:52:31;17.40;99.90
52459;DHT22;38372;52.902;6.024;2022-08-03T03:54:57;17.40;99.90
52459;DHT22;38372;52.902;6.024;2022-08-03T03:57:23;17.30;99.90
52459;DHT22;38372;52.902;6.024;2022-08-03T03:59:49;17.30;99.90
52459;DHT22;38372;52.902;6.024;2022-08-03T04:02:15;17.30;99.90
52459;DHT22;38372;52.902;6.024;2022-08-03T04:04:41;17.30;99.90
52459;DHT22;38372;52.902;6.024;2022-08-03T04:07:26;17.20;99.90
52459;DHT22;38372;52.902;6.024;2022-08-03T04:10:20;17.20;99.90
52459;DHT22;38372;52.902;6.024;2022-08-03T04:13:09;17.20;99.90
52459;DHT22;38372;52.902;6.024;2022-08-03T04:15:40;17.20;99.90
52459;DHT22;38372;52.902;6.024;2022-08-03T04:18:10;17.20;99.90
52459;DHT22;38372;52.902;6.024;2022-08-03T04:20:38;17.20;99.90
52459;DHT22;38372;52.902;6.024;2022-08-03T04:23:05;17.20;99.90
52459;DHT22;38372;52.902;6.024;2022-08-03T04:25:33;17.20;99.90
52459;DHT22;38372;52.902;6.024;2022-08-03T04:28:00;17.10;99.90
52459;DHT22;38372;52.902;6.024;2022-08-03T04:30:27;17.20;99.90
52459;DHT22;38372;52.902;6.024;2022-08-03T04:32:57;17.10;99.90
52459;DHT22;38372;52.902;6.024;2022-08-03T04:35:30;17.20;99.90
52459;DHT22;38372;52.902;6.024;2022-08-03T04:38:01;17.20;99.90
52459;DHT22;38372;52.902;6.024;2022-08-03T04:40:33;17.20;99.90
52459;DHT22;38372;52.902;6.024;2022-08-03T04:42:59;17.20;99.90
52459;DHT22;38372;52.902;6.024;2022-08-03T04:45:27;17.30;99.90
52459;DHT22;38372;52.902;6.024;2022-08-03T04:47:54;17.30;99.90
52459;DHT22;38372;52.902;6.024;2022-08-03T04:50:21;17.30;99.90
52459;DHT22;38372;52.902;6.024;2022-08-03T04:52:47;17.40;99.90
52459;DHT22;38372;52.902;6.024;2022-08-03T04:55:27;17.40;99.90
52459;DHT22;38372;52.902;6.024;2022-08-03T04:57:53;17.50;99.90
52459;DHT22;38372;52.902;6.024;2022-08-03T05:00:19;17.50;99.90
52459;DHT22;38372;52.902;6.024;2022-08-03T05:02:45;17.60;99.90
52459;DHT22;38372;52.902;6.024;2022-08-03T05:05:11;17.60;99.90
52459;DHT22;38372;52.902;6.024;2022-08-03T05:07:37;17.70;99.90
52459;DHT22;38372;52.902;6.024;2022-08-03T05:10:07;17.70;99.90
52459;DHT22;38372;52.902;6.024;2022-08-03T05:12:33;17.80;99.90
52459;DHT22;38372;52.902;6.024;2022-08-03T05:14:59;17.90;99.90
52459;DHT22;38372;52.902;6.024;2022-08-03T05:17:25;18.00;99.90
52459;DHT22;38372;52.902;6.024;2022-08-03T05:19:51;18.10;99.90
52459;DHT22;38372;52.902;6.024;2022-08-03T05:22:17;18.10;99.90
52459;DHT22;38372;52.902;6.024;2022-08-03T05:24:43;18.20;99.90
52459;DHT22;38372;52.902;6.024;2022-08-03T05:27:09;18.30;99.90
52459;DHT22;38372;52.902;6.024;2022-08-03T05:29:37;18.40;99.90
52459;DHT22;38372;52.902;6.024;2022-08-03T05:32:03;18.50;99.90
52459;DHT22;38372;52.902;6.024;2022-08-03T05:34:29;18.50;99.90
52459;DHT22;38372;52.902;6.024;2022-08-03T05:36:54;18.60;99.90
52459;DHT22;38372;52.902;6.024;2022-08-03T05:39:20;18.60;99.90
52459;DHT22;38372;52.902;6.024;2022-08-03T05:41:46;18.70;99.90
52459;DHT22;38372;52.902;6.024;2022-08-03T05:44:12;18.70;99.90
52459;DHT22;38372;52.902;6.024;2022-08-03T05:46:38;18.80;99.90
52459;DHT22;38372;52.902;6.024;2022-08-03T05:49:04;18.80;99.90
52459;DHT22;38372;52.902;6.024;2022-08-03T05:51:29;18.90;99.90
52459;DHT22;38372;52.902;6.024;2022-08-03T05:53:56;19.00;99.90
52459;DHT22;38372;52.902;6.024;2022-08-03T05:56:26;19.10;99.90
52459;DHT22;38372;52.902;6.024;2022-08-03T05:58:51;19.20;99.90
52459;DHT22;38372;52.902;6.024;2022-08-03T06:01:18;19.30;99.90
52459;DHT22;38372;52.902;6.024;2022-08-03T06:03:46;19.40;99.90
52459;DHT22;38372;52.902;6.024;2022-08-03T06:06:13;19.50;99.90
52459;DHT22;38372;52.902;6.024;2022-08-03T06:08:40;19.60;99.90
52459;DHT22;38372;52.902;6.024;2022-08-03T06:11:06;19.70;99.90
52459;DHT22;38372;52.902;6.024;2022-08-03T06:13:32;19.70;99.90
52459;DHT22;38372;52.902;6.024;2022-08-03T06:15:58;19.70;99.90
52459;DHT22;38372;52.902;6.024;2022-08-03T06:18:24;19.90;99.90
52459;DHT22;38372;52.902;6.024;2022-08-03T06:20:50;19.90;99.90
52459;DHT22;38372;52.902;6.024;2022-08-03T06:23:16;20.00;99.90
52459;DHT22;38372;52.902;6.024;2022-08-03T06:25:42;20.10;99.90
52459;DHT22;38372;52.902;6.024;2022-08-03T06:28:08;20.10;99.90
52459;DHT22;38372;52.902;6.024;2022-08-03T06:30:35;20.20;99.90
52459;DHT22;38372;52.902;6.024;2022-08-03T06:33:01;20.30;99.90
52459;DHT22;38372;52.902;6.024;2022-08-03T06:35:26;20.40;99.90
52459;DHT22;38372;52.902;6.024;2022-08-03T06:37:53;20.70;99.90
52459;DHT22;38372;52.902;6.024;2022-08-03T06:40:20;20.90;99.90
52459;DHT22;38372;52.902;6.024;2022-08-03T06:43:01;21.20;99.90
52459;DHT22;38372;52.902;6.024;2022-08-03T06:45:33;21.50;99.90
52459;DHT22;38372;52.902;6.024;2022-08-03T06:48:03;21.70;99.90
52459;DHT22;38372;52.902;6.024;2022-08-03T06:50:30;21.70;99.90
52459;DHT22;38372;52.902;6.024;2022-08-03T06:52:56;21.70;99.90
52459;DHT22;38372;52.902;6.024;2022-08-03T06:55:22;21.80;99.90
52459;DHT22;38372;52.902;6.024;2022-08-03T06:57:48;21.80;99.90
52459;DHT22;38372;52.902;6.024;2022-08-03T07:00:14;21.90;99.90
52459;DHT22;38372;52.902;6.024;2022-08-03T07:02:40;22.10;99.90
52459;DHT22;38372;52.902;6.024;2022-08-03T07:05:07;22.40;99.90
52459;DHT22;38372;52.902;6.024;2022-08-03T07:07:34;22.70;99.90
52459;DHT22;38372;52.902;6.024;2022-08-03T07:10:00;23.00;99.90
52459;DHT22;38372;52.902;6.024;2022-08-03T07:12:27;23.10;99.90
52459;DHT22;38372;52.902;6.024;2022-08-03T07:14:54;23.10;99.90
52459;DHT22;38372;52.902;6.024;2022-08-03T07:17:20;23.20;99.90
52459;DHT22;38372;52.902;6.024;2022-08-03T07:19:46;23.20;99.90
52459;DHT22;38372;52.902;6.024;2022-08-03T07:22:11;23.30;99.90
52459;DHT22;38372;52.902;6.024;2022-08-03T07:24:37;23.40;99.90
52459;DHT22;38372;52.902;6.024;2022-08-03T07:27:03;23.50;99.90
52459;DHT22;38372;52.902;6.024;2022-08-03T07:29:29;23.60;99.90
52459;DHT22;38372;52.902;6.024;2022-08-03T07:31:55;23.80;99.90
52459;DHT22;38372;52.902;6.024;2022-08-03T07:34:21;24.10;99.90
52459;DHT22;38372;52.902;6.024;2022-08-03T07:36:47;24.30;99.90
52459;DHT22;38372;52.902;6.024;2022-08-03T07:39:12;24.20;99.90
52459;DHT22;38372;52.902;6.024;2022-08-03T07:41:38;24.30;99.90
52459;DHT22;38372;52.902;6.024;2022-08-03T07:44:04;24.30;99.90
52459;DHT22;38372;52.902;6.024;2022-08-03T07:46:30;24.30;99.90
52459;DHT22;38372;52.902;6.024;2022-08-03T07:48:56;24.20;99.90
52459;DHT22;38372;52.902;6.024;2022-08-03T07:51:22;24.30;99.90
52459;DHT22;38372;52.902;6.024;2022-08-03T07:53:47;24.30;99.90
52459;DHT22;38372;52.902;6.024;2022-08-03T07:56:13;24.30;99.90
52459;DHT22;38372;52.902;6.024;2022-08-03T07:58:41;24.30;99.90
52459;DHT22;38372;52.902;6.024;2022-08-03T08:01:07;24.10;99.90
52459;DHT22;38372;52.902;6.024;2022-08-03T08:03:33;23.80;99.90
52459;DHT22;38372;52.902;6.024;2022-08-03T08:05:58;23.60;99.90
52459;DHT22;38372;52.902;6.024;2022-08-03T08:08:24;23.50;99.90
52459;DHT22;38372;52.902;6.024;2022-08-03T08:10:50;23.60;99.90
52459;DHT22;38372;52.902;6.024;2022-08-03T08:13:16;23.80;99.90
52459;DHT22;38372;52.902;6.024;2022-08-03T08:15:42;24.10;99.90
52459;DHT22;38372;52.902;6.024;2022-08-03T08:18:08;24.50;99.90
52459;DHT22;38372;52.902;6.024;2022-08-03T08:20:34;24.80;99.90
52459;DHT22;38372;52.902;6.024;2022-08-03T08:23:05;25.20;99.90
52459;DHT22;38372;52.902;6.024;2022-08-03T08:25:32;25.50;99.90
52459;DHT22;38372;52.902;6.024;2022-08-03T08:27:59;25.90;99.90
52459;DHT22;38372;52.902;6.024;2022-08-03T08:30:30;26.20;99.90
52459;DHT22;38372;52.902;6.024;2022-08-03T08:32:56;26.50;99.90
52459;DHT22;38372;52.902;6.024;2022-08-03T08:35:22;26.60;99.90
52459;DHT22;38372;52.902;6.024;2022-08-03T08:37:48;26.60;99.90
52459;DHT22;38372;52.902;6.024;2022-08-03T08:40:15;26.60;99.90
52459;DHT22;38372;52.902;6.024;2022-08-03T08:42:43;26.80;99.90
52459;DHT22;38372;52.902;6.024;2022-08-03T08:45:09;26.80;99.90
52459;DHT22;38372;52.902;6.024;2022-08-03T08:47:39;26.80;99.90
52459;DHT22;38372;52.902;6.024;2022-08-03T08:50:06;26.70;99.90
52459;DHT22;38372;52.902;6.024;2022-08-03T08:52:37;26.60;99.90
52459;DHT22;38372;52.902;6.024;2022-08-03T08:55:06;26.70;99.90
52459;DHT22;38372;52.902;6.024;2022-08-03T08:57:37;26.90;99.90
52459;DHT22;38372;52.902;6.024;2022-08-03T09:00:08;26.90;99.90
52459;DHT22;38372;52.902;6.024;2022-08-03T09:02:35;26.70;99.90
52459;DHT22;38372;52.902;6.024;2022-08-03T09:05:01;26.60;99.90
52459;DHT22;38372;52.902;6.024;2022-08-03T09:07:28;26.60;99.90
52459;DHT22;38372;52.902;6.024;2022-08-03T09:09:54;26.50;99.90
52459;DHT22;38372;52.902;6.024;2022-08-03T09:12:21;26.20;99.90
52459;DHT22;38372;52.902;6.024;2022-08-03T09:14:46;26.00;99.90
52459;DHT22;38372;52.902;6.024;2022-08-03T09:17:12;26.10;99.90
52459;DHT22;38372;52.902;6.024;2022-08-03T09:19:38;26.30;99.90
52459;DHT22;38372;52.902;6.024;2022-08-03T09:22:12;26.60;99.90
52459;DHT22;38372;52.902;6.024;2022-08-03T09:24:59;26.90;99.90
52459;DHT22;38372;52.902;6.024;2022-08-03T09:27:26;27.00;99.90
52459;DHT22;38372;52.902;6.024;2022-08-03T09:29:52;27.20;99.90
52459;DHT22;38372;52.902;6.024;2022-08-03T09:32:20;27.50;99.90
52459;DHT22;38372;52.902;6.024;2022-08-03T09:34:47;27.80;99.90
52459;DHT22;38372;52.902;6.024;2022-08-03T09:37:16;28.10;99.90
52459;DHT22;38372;52.902;6.024;2022-08-03T09:39:42;28.20;99.90
52459;DHT22;38372;52.902;6.024;2022-08-03T09:42:13;28.40;99.90
52459;DHT22;38372;52.902;6.024;2022-08-03T09:44:42;28.50;99.90
52459;DHT22;38372;52.902;6.024;2022-08-03T09:47:12;28.40;99.90
52459;DHT22;38372;52.902;6.024;2022-08-03T09:49:40;28.30;99.90
52459;DHT22;38372;52.902;6.024;2022-08-03T09:52:18;28.50;99.90
52459;DHT22;38372;52.902;6.024;2022-08-03T09:54:52;28.30;99.90
52459;DHT22;38372;52.902;6.024;2022-08-03T09:57:26;28.20;99.90
52459;DHT22;38372;52.902;6.024;2022-08-03T09:59:53;28.50;99.90
52459;DHT22;38372;52.902;6.024;2022-08-03T10:02:30;28.50;99.90
52459;DHT22;38372;52.902;6.024;2022-08-03T10:04:56;28.70;99.90
52459;DHT22;38372;52.902;6.024;2022-08-03T10:07:23;28.80;99.90
52459;DHT22;38372;52.902;6.024;2022-08-03T10:09:59;28.90;99.90
52459;DHT22;38372;52.902;6.024;2022-08-03T10:12:27;29.10;99.90
52459;DHT22;38372;52.902;6.024;2022-08-03T10:14:53;29.30;99.90
52459;DHT22;38372;52.902;6.024;2022-08-03T10:17:20;29.60;99.90
52459;DHT22;38372;52.902;6.024;2022-08-03T10:19:48;29.70;99.90
52459;DHT22;38372;52.902;6.024;2022-08-03T10:22:17;29.80;99.90
52459;DHT22;38372;52.902;6.024;2022-08-03T10:24:58;29.80;99.90
52459;DHT22;38372;52.902;6.024;2022-08-03T10:27:26;29.80;99.90
52459;DHT22;38372;52.902;6.024;2022-08-03T10:29:55;29.90;99.90
52459;DHT22;38372;52.902;6.024;2022-08-03T10:32:42;29.80;99.90
52459;DHT22;38372;52.902;6.024;2022-08-03T10:35:13;29.80;99.90
52459;DHT22;38372;52.902;6.024;2022-08-03T10:37:58;29.80;99.90
52459;DHT22;38372;52.902;6.024;2022-08-03T10:40:26;29.60;99.90
52459;DHT22;38372;52.902;6.024;2022-08-03T10:42:55;29.50;99.90
52459;DHT22;38372;52.902;6.024;2022-08-03T10:45:26;29.50;99.90
52459;DHT22;38372;52.902;6.024;2022-08-03T10:47:55;29.50;99.90
52459;DHT22;38372;52.902;6.024;2022-08-03T10:50:23;29.60;99.90
52459;DHT22;38372;52.902;6.024;2022-08-03T10:55:36;30.10;99.90
52459;DHT22;38372;52.902;6.024;2022-08-03T11:01:10;30.70;99.90
52459;DHT22;38372;52.902;6.024;2022-08-03T11:06:22;30.50;99.90
52459;DHT22;38372;52.902;6.024;2022-08-03T11:09:35;30.60;99.90
52459;DHT22;38372;52.902;6.024;2022-08-03T11:11:37;30.60;99.90
52459;DHT22;38372;52.902;6.024;2022-08-03T11:14:05;30.70;99.90
52459;DHT22;38372;52.902;6.024;2022-08-03T11:16:38;30.60;99.90
52459;DHT22;38372;52.902;6.024;2022-08-03T11:19:10;30.40;99.90
52459;DHT22;38372;52.902;6.024;2022-08-03T11:27:31;30.20;99.90
52459;DHT22;38372;52.902;6.024;2022-08-03T11:30:08;30.30;99.90
52459;DHT22;38372;52.902;6.024;2022-08-03T11:35:17;30.30;99.90
52459;DHT22;38372;52.902;6.024;2022-08-03T11:40:47;30.50;99.90
52459;DHT22;38372;52.902;6.024;2022-08-03T11:46:04;30.50;99.70
52459;DHT22;38372;52.902;6.024;2022-08-03T11:48:42;30.30;99.90
52459;DHT22;38372;52.902;6.024;2022-08-03T11:51:21;30.30;99.90
52459;DHT22;38372;52.902;6.024;2022-08-03T11:56:22;30.30;99.90
52459;DHT22;38372;52.902;6.024;2022-08-03T11:58:50;30.30;99.90
52459;DHT22;38372;52.902;6.024;2022-08-03T12:01:18;30.30;99.90
52459;DHT22;38372;52.902;6.024;2022-08-03T12:03:44;30.30;99.90
52459;DHT22;38372;52.902;6.024;2022-08-03T12:06:12;30.50;99.90
52459;DHT22;38372;52.902;6.024;2022-08-03T12:08:40;30.60;99.90
52459;DHT22;38372;52.902;6.024;2022-08-03T12:11:12;30.60;98.30
52459;DHT22;38372;52.902;6.024;2022-08-03T12:13:39;30.50;98.90
52459;DHT22;38372;52.902;6.024;2022-08-03T12:16:06;30.50;99.70
52459;DHT22;38372;52.902;6.024;2022-08-03T12:18:32;30.50;99.50
52459;DHT22;38372;52.902;6.024;2022-08-03T12:21:10;30.50;99.80
52459;DHT22;38372;52.902;6.024;2022-08-03T12:23:37;30.40;99.60
52459;DHT22;38372;52.902;6.024;2022-08-03T12:26:08;30.30;98.70
52459;DHT22;38372;52.902;6.024;2022-08-03T12:28:36;30.20;98.30
52459;DHT22;38372;52.902;6.024;2022-08-03T12:31:06;30.10;99.90
52459;DHT22;38372;52.902;6.024;2022-08-03T12:36:23;30.10;99.40
52459;DHT22;38372;52.902;6.024;2022-08-03T12:39:04;30.00;99.00
52459;DHT22;38372;52.902;6.024;2022-08-03T12:41:39;29.90;99.20
52459;DHT22;38372;52.902;6.024;2022-08-03T12:44:06;29.80;98.00
52459;DHT22;38372;52.902;6.024;2022-08-03T12:46:34;29.60;97.50
52459;DHT22;38372;52.902;6.024;2022-08-03T12:49:14;29.50;98.50
52459;DHT22;38372;52.902;6.024;2022-08-03T12:54:17;29.50;99.60
52459;DHT22;38372;52.902;6.024;2022-08-03T12:57:02;29.50;99.80
52459;DHT22;38372;52.902;6.024;2022-08-03T12:59:40;29.50;99.00
52459;DHT22;38372;52.902;6.024;2022-08-03T13:02:24;29.40;98.60
52459;DHT22;38372;52.902;6.024;2022-08-03T13:04:51;29.30;99.90
52459;DHT22;38372;52.902;6.024;2022-08-03T13:07:18;29.20;99.90
52459;DHT22;38372;52.902;6.024;2022-08-03T13:09:51;29.30;98.90
52459;DHT22;38372;52.902;6.024;2022-08-03T13:12:22;29.30;98.70
52459;DHT22;38372;52.902;6.024;2022-08-03T13:14:51;29.20;98.10
52459;DHT22;38372;52.902;6.024;2022-08-03T13:17:17;29.10;98.10
52459;DHT22;38372;52.902;6.024;2022-08-03T13:19:44;29.00;98.10
52459;DHT22;38372;52.902;6.024;2022-08-03T13:22:15;29.00;98.40
52459;DHT22;38372;52.902;6.024;2022-08-03T13:24:42;29.00;98.40
52459;DHT22;38372;52.902;6.024;2022-08-03T13:27:11;29.10;97.80
52459;DHT22;38372;52.902;6.024;2022-08-03T13:29:37;29.10;97.30
52459;DHT22;38372;52.902;6.024;2022-08-03T13:32:04;29.10;96.90
52459;DHT22;38372;52.902;6.024;2022-08-03T13:34:30;29.10;97.10
52459;DHT22;38372;52.902;6.024;2022-08-03T13:36:56;29.20;97.90
52459;DHT22;38372;52.902;6.024;2022-08-03T13:39:22;29.20;96.80
52459;DHT22;38372;52.902;6.024;2022-08-03T13:41:48;29.10;95.70
52459;DHT22;38372;52.902;6.024;2022-08-03T13:44:15;29.00;94.20
52459;DHT22;38372;52.902;6.024;2022-08-03T13:46:44;29.00;92.70
52459;DHT22;38372;52.902;6.024;2022-08-03T13:49:11;28.90;93.50
52459;DHT22;38372;52.902;6.024;2022-08-03T13:51:37;28.80;92.90
52459;DHT22;38372;52.902;6.024;2022-08-03T13:54:04;28.70;93.60
52459;DHT22;38372;52.902;6.024;2022-08-03T13:56:30;28.60;94.10
52459;DHT22;38372;52.902;6.024;2022-08-03T13:58:57;28.70;93.70
52459;DHT22;38372;52.902;6.024;2022-08-03T14:01:24;28.80;93.60
52459;DHT22;38372;52.902;6.024;2022-08-03T14:03:51;28.90;94.40
52459;DHT22;38372;52.902;6.024;2022-08-03T14:06:24;28.80;94.20
52459;DHT22;38372;52.902;6.024;2022-08-03T14:08:52;28.80;93.80
52459;DHT22;38372;52.902;6.024;2022-08-03T14:11:27;28.80;93.40
52459;DHT22;38372;52.902;6.024;2022-08-03T14:13:55;28.80;93.90
52459;DHT22;38372;52.902;6.024;2022-08-03T14:16:23;28.80;94.50
52459;DHT22;38372;52.902;6.024;2022-08-03T14:18:50;28.80;95.00
52459;DHT22;38372;52.902;6.024;2022-08-03T14:21:16;29.10;94.80
52459;DHT22;38372;52.902;6.024;2022-08-03T14:23:45;29.30;93.80
52459;DHT22;38372;52.902;6.024;2022-08-03T14:26:17;29.30;92.80
52459;DHT22;38372;52.902;6.024;2022-08-03T14:28:45;29.40;92.60
52459;DHT22;38372;52.902;6.024;2022-08-03T14:31:11;29.70;91.30
52459;DHT22;38372;52.902;6.024;2022-08-03T14:33:38;29.80;91.70
52459;DHT22;38372;52.902;6.024;2022-08-03T14:36:05;29.70;90.70
52459;DHT22;38372;52.902;6.024;2022-08-03T14:38:31;29.50;91.10
52459;DHT22;38372;52.902;6.024;2022-08-03T14:41:01;29.20;90.10
52459;DHT22;38372;52.902;6.024;2022-08-03T14:43:39;29.10;91.20
52459;DHT22;38372;52.902;6.024;2022-08-03T14:46:14;29.00;91.20
52459;DHT22;38372;52.902;6.024;2022-08-03T14:48:43;29.00;91.40
52459;DHT22;38372;52.902;6.024;2022-08-03T14:51:13;29.00;92.00
52459;DHT22;38372;52.902;6.024;2022-08-03T14:53:46;29.00;92.10
52459;DHT22;38372;52.902;6.024;2022-08-03T14:56:17;29.00;91.00
52459;DHT22;38372;52.902;6.024;2022-08-03T14:58:46;29.00;92.00
52459;DHT22;38372;52.902;6.024;2022-08-03T15:01:21;29.20;91.40
52459;DHT22;38372;52.902;6.024;2022-08-03T15:03:49;29.20;91.30
52459;DHT22;38372;52.902;6.024;2022-08-03T15:06:20;29.50;91.60
52459;DHT22;38372;52.902;6.024;2022-08-03T15:08:52;29.50;91.50
52459;DHT22;38372;52.902;6.024;2022-08-03T15:11:20;29.20;90.90
52459;DHT22;38372;52.902;6.024;2022-08-03T15:13:55;28.90;91.00
52459;DHT22;38372;52.902;6.024;2022-08-03T15:16:29;28.70;91.80
52459;DHT22;38372;52.902;6.024;2022-08-03T15:18:58;28.50;92.00
52459;DHT22;38372;52.902;6.024;2022-08-03T15:21:31;28.40;92.60
52459;DHT22;38372;52.902;6.024;2022-08-03T15:24:00;28.20;92.30
52459;DHT22;38372;52.902;6.024;2022-08-03T15:26:31;28.10;92.50
52459;DHT22;38372;52.902;6.024;2022-08-03T15:29:01;28.00;91.70
52459;DHT22;38372;52.902;6.024;2022-08-03T15:31:34;27.90;91.30
52459;DHT22;38372;52.902;6.024;2022-08-03T15:34:06;27.90;91.90
52459;DHT22;38372;52.902;6.024;2022-08-03T15:36:42;27.70;92.80
52459;DHT22;38372;52.902;6.024;2022-08-03T15:39:10;27.70;93.90
52459;DHT22;38372;52.902;6.024;2022-08-03T15:41:42;27.60;94.00
52459;DHT22;38372;52.902;6.024;2022-08-03T15:44:22;27.60;93.60
52459;DHT22;38372;52.902;6.024;2022-08-03T15:46:54;27.50;93.10
52459;DHT22;38372;52.902;6.024;2022-08-03T15:49:23;27.40;93.20
52459;DHT22;38372;52.902;6.024;2022-08-03T15:51:51;27.30;93.40
52459;DHT22;38372;52.902;6.024;2022-08-03T15:54:27;27.30;93.70
52459;DHT22;38372;52.902;6.024;2022-08-03T15:56:59;27.20;94.00
52459;DHT22;38372;52.902;6.024;2022-08-03T15:59:32;27.10;94.80
52459;DHT22;38372;52.902;6.024;2022-08-03T16:02:05;27.10;95.30
52459;DHT22;38372;52.902;6.024;2022-08-03T16:04:40;27.00;95.80
52459;DHT22;38372;52.902;6.024;2022-08-03T16:07:08;27.00;95.50
52459;DHT22;38372;52.902;6.024;2022-08-03T16:09:37;26.90;95.80
52459;DHT22;38372;52.902;6.024;2022-08-03T16:12:07;26.90;96.30
52459;DHT22;38372;52.902;6.024;2022-08-03T16:14:35;26.90;96.40
52459;DHT22;38372;52.902;6.024;2022-08-03T16:17:04;26.80;96.70
52459;DHT22;38372;52.902;6.024;2022-08-03T16:19:35;26.80;96.50
52459;DHT22;38372;52.902;6.024;2022-08-03T16:22:03;26.80;96.40